sensor_id;sensor_type;location;lat;lon;timestamp;P1;durP1;ratioP1;P2;durP2;ratioP2
15132;SDS011;7667;51.232;17.110;2023-11-21T00:00:15;2.53;;;2.30;;
15132;SDS011;7667;51.232;17.110;2023-11-21T00:02:44;3.03;;;2.70;;
15132;SDS011;7667;51.232;17.110;2023-11-21T00:05:14;2.33;;;2.13;;
15132;SDS011;7667;51.232;17.110;2023-11-21T00:07:43;2.77;;;2.53;;
15132;SDS011;7667;51.232;17.110;2023-11-21T00:10:11;3.43;;;2.37;;
15132;SDS011;7667;51.232;17.110;2023-11-21T00:12:41;3.57;;;2.60;;
15132;SDS011;7667;51.232;17.110;2023-11-21T00:15:09;3.70;;;2.47;;
15132;SDS011;7667;51.232;17.110;2023-11-21T00:17:40;3.37;;;2.10;;
15132;SDS011;7667;51.232;17.110;2023-11-21T00:20:09;3.70;;;2.13;;
15132;SDS011;7667;51.232;17.110;2023-11-21T00:22:40;3.07;;;2.20;;
15132;SDS011;7667;51.232;17.110;2023-11-21T00:25:08;3.43;;;2.20;;
15132;SDS011;7667;51.232;17.110;2023-11-21T00:27:36;3.67;;;2.33;;
15132;SDS011;7667;51.232;17.110;2023-11-21T00:30:04;2.83;;;2.50;;
15132;SDS011;7667;51.232;17.110;2023-11-21T00:32:33;3.37;;;2.27;;
15132;SDS011;7667;51.232;17.110;2023-11-21T00:35:03;3.37;;;2.40;;
15132;SDS011;7667;51.232;17.110;2023-11-21T00:37:31;3.00;;;2.23;;
15132;SDS011;7667;51.232;17.110;2023-11-21T00:39:59;3.37;;;2.60;;
15132;SDS011;7667;51.232;17.110;2023-11-21T00:42:26;3.53;;;2.40;;
15132;SDS011;7667;51.232;17.110;2023-11-21T00:44:54;4.87;;;2.53;;
15132;SDS011;7667;51.232;17.110;2023-11-21T00:47:21;3.30;;;2.33;;
15132;SDS011;7667;51.232;17.110;2023-11-21T00:49:49;3.83;;;2.30;;
15132;SDS011;7667;51.232;17.110;2023-11-21T00:52:17;4.30;;;2.40;;
15132;SDS011;7667;51.232;17.110;2023-11-21T00:54:44;4.00;;;2.50;;
15132;SDS011;7667;51.232;17.110;2023-11-21T00:57:12;4.67;;;2.70;;
15132;SDS011;7667;51.232;17.110;2023-11-21T00:59:40;2.73;;;2.50;;
15132;SDS011;7667;51.232;17.110;2023-11-21T01:02:08;3.90;;;2.77;;
15132;SDS011;7667;51.232;17.110;2023-11-21T01:04:37;4.33;;;3.00;;
15132;SDS011;7667;51.232;17.110;2023-11-21T01:07:05;3.30;;;2.67;;
15132;SDS011;7667;51.232;17.110;2023-11-21T01:09:32;4.13;;;2.80;;
15132;SDS011;7667;51.232;17.110;2023-11-21T01:12:01;3.07;;;2.53;;
15132;SDS011;7667;51.232;17.110;2023-11-21T01:14:29;4.20;;;2.43;;
15132;SDS011;7667;51.232;17.110;2023-11-21T01:16:57;3.30;;;2.43;;
15132;SDS011;7667;51.232;17.110;2023-11-21T01:19:25;2.50;;;2.30;;
15132;SDS011;7667;51.232;17.110;2023-11-21T01:21:52;2.33;;;2.13;;
15132;SDS011;7667;51.232;17.110;2023-11-21T01:24:20;3.07;;;2.50;;
15132;SDS011;7667;51.232;17.110;2023-11-21T01:26:47;2.67;;;2.43;;
15132;SDS011;7667;51.232;17.110;2023-11-21T01:29:15;3.03;;;2.53;;
15132;SDS011;7667;51.232;17.110;2023-11-21T01:31:42;3.00;;;2.37;;
15132;SDS011;7667;51.232;17.110;2023-11-21T01:34:10;3.50;;;2.43;;
15132;SDS011;7667;51.232;17.110;2023-11-21T01:36:38;4.53;;;2.77;;
15132;SDS011;7667;51.232;17.110;2023-11-21T01:39:05;3.57;;;2.60;;
15132;SDS011;7667;51.232;17.110;2023-11-21T01:41:37;3.87;;;2.37;;
15132;SDS011;7667;51.232;17.110;2023-11-21T01:44:05;2.57;;;2.27;;
15132;SDS011;7667;51.232;17.110;2023-11-21T01:46:35;3.70;;;2.50;;
15132;SDS011;7667;51.232;17.110;2023-11-21T01:49:04;2.67;;;2.47;;
15132;SDS011;7667;51.232;17.110;2023-11-21T01:51:32;3.43;;;2.00;;
15132;SDS011;7667;51.232;17.110;2023-11-21T01:54:00;3.30;;;2.50;;
15132;SDS011;7667;51.232;17.110;2023-11-21T01:56:42;3.87;;;2.60;;
15132;SDS011;7667;51.232;17.110;2023-11-21T01:59:15;2.60;;;2.10;;
15132;SDS011;7667;51.232;17.110;2023-11-21T02:01:50;4.83;;;2.53;;
15132;SDS011;7667;51.232;17.110;2023-11-21T02:04:18;3.90;;;2.67;;
15132;SDS011;7667;51.232;17.110;2023-11-21T02:06:47;3.70;;;2.57;;
15132;SDS011;7667;51.232;17.110;2023-11-21T02:09:14;3.13;;;2.53;;
15132;SDS011;7667;51.232;17.110;2023-11-21T02:11:42;3.63;;;2.63;;
15132;SDS011;7667;51.232;17.110;2023-11-21T02:14:10;3.30;;;2.60;;
15132;SDS011;7667;51.232;17.110;2023-11-21T02:16:40;4.40;;;2.80;;
15132;SDS011;7667;51.232;17.110;2023-11-21T02:19:08;4.87;;;2.60;;
15132;SDS011;7667;51.232;17.110;2023-11-21T02:21:37;4.27;;;2.40;;
15132;SDS011;7667;51.232;17.110;2023-11-21T02:24:07;2.53;;;2.33;;
15132;SDS011;7667;51.232;17.110;2023-11-21T02:26:35;3.27;;;2.60;;
15132;SDS011;7667;51.232;17.110;2023-11-21T02:29:03;4.00;;;2.33;;
15132;SDS011;7667;51.232;17.110;2023-11-21T02:31:31;2.70;;;2.50;;
15132;SDS011;7667;51.232;17.110;2023-11-21T02:33:59;2.33;;;2.10;;
15132;SDS011;7667;51.232;17.110;2023-11-21T02:36:27;2.60;;;2.40;;
15132;SDS011;7667;51.232;17.110;2023-11-21T02:38:55;3.93;;;2.97;;
15132;SDS011;7667;51.232;17.110;2023-11-21T02:41:22;3.47;;;2.80;;
15132;SDS011;7667;51.232;17.110;2023-11-21T02:43:50;4.90;;;3.63;;
15132;SDS011;7667;51.232;17.110;2023-11-21T02:46:18;5.40;;;3.60;;
15132;SDS011;7667;51.232;17.110;2023-11-21T02:48:45;4.57;;;3.50;;
15132;SDS011;7667;51.232;17.110;2023-11-21T02:51:13;3.90;;;3.30;;
15132;SDS011;7667;51.232;17.110;2023-11-21T02:53:42;4.17;;;3.60;;
15132;SDS011;7667;51.232;17.110;2023-11-21T02:56:10;3.63;;;2.60;;
15132;SDS011;7667;51.232;17.110;2023-11-21T02:58:37;2.40;;;2.00;;
15132;SDS011;7667;51.232;17.110;2023-11-21T03:01:08;2.27;;;2.07;;
15132;SDS011;7667;51.232;17.110;2023-11-21T03:03:38;3.80;;;2.13;;
15132;SDS011;7667;51.232;17.110;2023-11-21T03:06:07;3.73;;;2.33;;
15132;SDS011;7667;51.232;17.110;2023-11-21T03:08:35;2.40;;;2.13;;
15132;SDS011;7667;51.232;17.110;2023-11-21T03:11:02;2.70;;;2.03;;
15132;SDS011;7667;51.232;17.110;2023-11-21T03:13:30;2.67;;;2.37;;
15132;SDS011;7667;51.232;17.110;2023-11-21T03:15:58;2.73;;;2.37;;
15132;SDS011;7667;51.232;17.110;2023-11-21T03:18:25;3.10;;;2.40;;
15132;SDS011;7667;51.232;17.110;2023-11-21T03:20:53;2.47;;;2.20;;
15132;SDS011;7667;51.232;17.110;2023-11-21T03:23:20;3.00;;;2.70;;
15132;SDS011;7667;51.232;17.110;2023-11-21T03:25:48;3.70;;;2.50;;
15132;SDS011;7667;51.232;17.110;2023-11-21T03:28:15;2.60;;;2.40;;
15132;SDS011;7667;51.232;17.110;2023-11-21T03:30:43;3.40;;;2.40;;
15132;SDS011;7667;51.232;17.110;2023-11-21T03:33:11;2.67;;;2.40;;
15132;SDS011;7667;51.232;17.110;2023-11-21T03:35:39;2.33;;;2.13;;
15132;SDS011;7667;51.232;17.110;2023-11-21T03:38:09;2.70;;;2.50;;
15132;SDS011;7667;51.232;17.110;2023-11-21T03:40:37;2.53;;;2.33;;
15132;SDS011;7667;51.232;17.110;2023-11-21T03:43:06;2.97;;;2.73;;
15132;SDS011;7667;51.232;17.110;2023-11-21T03:45:33;2.60;;;2.30;;
15132;SDS011;7667;51.232;17.110;2023-11-21T03:48:01;3.83;;;2.93;;
15132;SDS011;7667;51.232;17.110;2023-11-21T03:50:29;3.87;;;2.70;;
15132;SDS011;7667;51.232;17.110;2023-11-21T03:52:57;3.13;;;2.67;;
15132;SDS011;7667;51.232;17.110;2023-11-21T03:55:24;2.80;;;2.60;;
15132;SDS011;7667;51.232;17.110;2023-11-21T03:57:52;3.20;;;2.73;;
15132;SDS011;7667;51.232;17.110;2023-11-21T04:00:19;3.00;;;2.70;;
15132;SDS011;7667;51.232;17.110;2023-11-21T04:02:47;3.60;;;2.93;;
15132;SDS011;7667;51.232;17.110;2023-11-21T04:05:15;4.47;;;3.60;;
15132;SDS011;7667;51.232;17.110;2023-11-21T04:07:43;4.33;;;2.80;;
15132;SDS011;7667;51.232;17.110;2023-11-21T04:10:10;3.67;;;3.30;;
15132;SDS011;7667;51.232;17.110;2023-11-21T04:12:40;4.20;;;3.30;;
15132;SDS011;7667;51.232;17.110;2023-11-21T04:15:07;4.37;;;3.47;;
15132;SDS011;7667;51.232;17.110;2023-11-21T04:17:36;3.90;;;3.40;;
15132;SDS011;7667;51.232;17.110;2023-11-21T04:20:04;4.27;;;3.33;;
15132;SDS011;7667;51.232;17.110;2023-11-21T04:22:37;4.37;;;3.37;;
15132;SDS011;7667;51.232;17.110;2023-11-21T04:25:11;4.40;;;3.40;;
15132;SDS011;7667;51.232;17.110;2023-11-21T04:27:43;6.07;;;3.23;;
15132;SDS011;7667;51.232;17.110;2023-11-21T04:30:12;4.07;;;3.33;;
15132;SDS011;7667;51.232;17.110;2023-11-21T04:32:41;4.80;;;3.50;;
15132;SDS011;7667;51.232;17.110;2023-11-21T04:35:09;4.83;;;3.53;;
15132;SDS011;7667;51.232;17.110;2023-11-21T04:37:36;3.90;;;3.50;;
15132;SDS011;7667;51.232;17.110;2023-11-21T04:40:04;4.50;;;3.70;;
15132;SDS011;7667;51.232;17.110;2023-11-21T04:42:37;5.33;;;3.90;;
15132;SDS011;7667;51.232;17.110;2023-11-21T04:45:05;4.83;;;3.40;;
15132;SDS011;7667;51.232;17.110;2023-11-21T04:47:36;5.20;;;3.43;;
15132;SDS011;7667;51.232;17.110;2023-11-21T04:50:04;4.67;;;3.47;;
15132;SDS011;7667;51.232;17.110;2023-11-21T04:52:32;5.40;;;3.73;;
15132;SDS011;7667;51.232;17.110;2023-11-21T04:55:00;4.43;;;2.87;;
15132;SDS011;7667;51.232;17.110;2023-11-21T04:57:29;4.17;;;3.13;;
15132;SDS011;7667;51.232;17.110;2023-11-21T04:59:57;3.83;;;3.20;;
15132;SDS011;7667;51.232;17.110;2023-11-21T05:02:25;5.00;;;3.47;;
15132;SDS011;7667;51.232;17.110;2023-11-21T05:05:01;4.30;;;3.33;;
15132;SDS011;7667;51.232;17.110;2023-11-21T05:07:33;4.80;;;3.70;;
15132;SDS011;7667;51.232;17.110;2023-11-21T05:10:03;4.73;;;3.40;;
15132;SDS011;7667;51.232;17.110;2023-11-21T05:12:39;3.53;;;3.23;;
15132;SDS011;7667;51.232;17.110;2023-11-21T05:15:08;3.73;;;3.20;;
15132;SDS011;7667;51.232;17.110;2023-11-21T05:17:37;3.93;;;3.53;;
15132;SDS011;7667;51.232;17.110;2023-11-21T05:20:12;4.07;;;3.33;;
15132;SDS011;7667;51.232;17.110;2023-11-21T05:22:45;4.63;;;3.53;;
15132;SDS011;7667;51.232;17.110;2023-11-21T05:25:13;5.70;;;3.60;;
15132;SDS011;7667;51.232;17.110;2023-11-21T05:27:40;4.80;;;3.40;;
15132;SDS011;7667;51.232;17.110;2023-11-21T05:30:08;4.47;;;3.43;;
15132;SDS011;7667;51.232;17.110;2023-11-21T05:32:39;4.07;;;3.10;;
15132;SDS011;7667;51.232;17.110;2023-11-21T05:35:10;3.30;;;3.00;;
15132;SDS011;7667;51.232;17.110;2023-11-21T05:37:44;4.07;;;3.37;;
15132;SDS011;7667;51.232;17.110;2023-11-21T05:40:13;3.67;;;3.30;;
15132;SDS011;7667;51.232;17.110;2023-11-21T05:42:41;3.57;;;3.27;;
15132;SDS011;7667;51.232;17.110;2023-11-21T05:45:09;5.73;;;3.67;;
15132;SDS011;7667;51.232;17.110;2023-11-21T05:47:42;5.17;;;3.53;;
15132;SDS011;7667;51.232;17.110;2023-11-21T05:50:14;4.50;;;3.30;;
15132;SDS011;7667;51.232;17.110;2023-11-21T05:52:44;3.43;;;3.13;;
15132;SDS011;7667;51.232;17.110;2023-11-21T05:55:14;3.87;;;3.00;;
15132;SDS011;7667;51.232;17.110;2023-11-21T05:57:42;3.63;;;3.13;;
15132;SDS011;7667;51.232;17.110;2023-11-21T06:00:14;4.77;;;3.43;;
15132;SDS011;7667;51.232;17.110;2023-11-21T06:02:48;3.77;;;3.47;;
15132;SDS011;7667;51.232;17.110;2023-11-21T06:05:18;4.33;;;3.50;;
15132;SDS011;7667;51.232;17.110;2023-11-21T06:07:50;4.23;;;2.97;;
15132;SDS011;7667;51.232;17.110;2023-11-21T06:10:26;4.53;;;2.93;;
15132;SDS011;7667;51.232;17.110;2023-11-21T06:12:55;3.83;;;3.23;;
15132;SDS011;7667;51.232;17.110;2023-11-21T06:15:29;3.50;;;3.20;;
15132;SDS011;7667;51.232;17.110;2023-11-21T06:17:57;4.20;;;3.80;;
15132;SDS011;7667;51.232;17.110;2023-11-21T06:20:25;4.23;;;3.83;;
15132;SDS011;7667;51.232;17.110;2023-11-21T06:22:53;4.37;;;3.97;;
15132;SDS011;7667;51.232;17.110;2023-11-21T06:25:20;4.67;;;4.17;;
15132;SDS011;7667;51.232;17.110;2023-11-21T06:27:50;4.70;;;4.20;;
15132;SDS011;7667;51.232;17.110;2023-11-21T06:30:20;4.40;;;3.97;;
15132;SDS011;7667;51.232;17.110;2023-11-21T06:32:48;4.87;;;4.07;;
15132;SDS011;7667;51.232;17.110;2023-11-21T06:35:18;4.77;;;4.33;;
15132;SDS011;7667;51.232;17.110;2023-11-21T06:37:45;4.50;;;3.70;;
15132;SDS011;7667;51.232;17.110;2023-11-21T06:40:16;3.97;;;3.60;;
15132;SDS011;7667;51.232;17.110;2023-11-21T06:42:46;3.50;;;3.20;;
15132;SDS011;7667;51.232;17.110;2023-11-21T06:45:15;3.13;;;2.80;;
15132;SDS011;7667;51.232;17.110;2023-11-21T06:47:43;4.20;;;3.27;;
15132;SDS011;7667;51.232;17.110;2023-11-21T06:50:11;2.90;;;2.47;;
15132;SDS011;7667;51.232;17.110;2023-11-21T06:52:39;4.13;;;2.80;;
15132;SDS011;7667;51.232;17.110;2023-11-21T06:55:07;3.13;;;2.83;;
15132;SDS011;7667;51.232;17.110;2023-11-21T06:57:35;2.87;;;2.67;;
15132;SDS011;7667;51.232;17.110;2023-11-21T07:00:05;3.10;;;2.80;;
15132;SDS011;7667;51.232;17.110;2023-11-21T07:02:36;3.33;;;3.00;;
15132;SDS011;7667;51.232;17.110;2023-11-21T07:05:05;3.10;;;2.90;;
15132;SDS011;7667;51.232;17.110;2023-11-21T07:07:33;3.00;;;2.57;;
15132;SDS011;7667;51.232;17.110;2023-11-21T07:10:03;3.47;;;2.60;;
15132;SDS011;7667;51.232;17.110;2023-11-21T07:12:32;3.30;;;2.90;;
15132;SDS011;7667;51.232;17.110;2023-11-21T07:15:01;3.10;;;2.70;;
15132;SDS011;7667;51.232;17.110;2023-11-21T07:17:29;2.50;;;2.23;;
15132;SDS011;7667;51.232;17.110;2023-11-21T07:19:58;2.33;;;2.13;;
15132;SDS011;7667;51.232;17.110;2023-11-21T07:22:26;2.63;;;2.40;;
15132;SDS011;7667;51.232;17.110;2023-11-21T07:24:55;2.63;;;2.10;;
15132;SDS011;7667;51.232;17.110;2023-11-21T07:27:25;3.20;;;2.33;;
15132;SDS011;7667;51.232;17.110;2023-11-21T07:29:53;2.30;;;2.10;;
15132;SDS011;7667;51.232;17.110;2023-11-21T07:32:20;2.70;;;2.10;;
15132;SDS011;7667;51.232;17.110;2023-11-21T07:34:48;3.30;;;1.97;;
15132;SDS011;7667;51.232;17.110;2023-11-21T07:37:16;2.20;;;2.00;;
15132;SDS011;7667;51.232;17.110;2023-11-21T07:39:43;2.60;;;2.40;;
15132;SDS011;7667;51.232;17.110;2023-11-21T07:42:11;2.27;;;2.07;;
15132;SDS011;7667;51.232;17.110;2023-11-21T07:44:38;2.60;;;2.40;;
15132;SDS011;7667;51.232;17.110;2023-11-21T07:47:06;3.27;;;2.60;;
15132;SDS011;7667;51.232;17.110;2023-11-21T07:49:34;2.80;;;2.60;;
15132;SDS011;7667;51.232;17.110;2023-11-21T07:52:01;2.57;;;2.37;;
15132;SDS011;7667;51.232;17.110;2023-11-21T07:54:29;3.20;;;2.00;;
15132;SDS011;7667;51.232;17.110;2023-11-21T07:56:57;3.87;;;2.10;;
15132;SDS011;7667;51.232;17.110;2023-11-21T07:59:24;3.13;;;2.60;;
15132;SDS011;7667;51.232;17.110;2023-11-21T08:01:52;2.70;;;2.50;;
15132;SDS011;7667;51.232;17.110;2023-11-21T08:04:19;3.40;;;2.67;;
15132;SDS011;7667;51.232;17.110;2023-11-21T08:06:47;2.87;;;2.30;;
15132;SDS011;7667;51.232;17.110;2023-11-21T08:09:14;2.83;;;2.53;;
15132;SDS011;7667;51.232;17.110;2023-11-21T08:11:44;2.67;;;2.40;;
15132;SDS011;7667;51.232;17.110;2023-11-21T08:14:13;2.47;;;2.20;;
15132;SDS011;7667;51.232;17.110;2023-11-21T08:16:41;2.60;;;2.40;;
15132;SDS011;7667;51.232;17.110;2023-11-21T08:19:09;2.70;;;2.50;;
15132;SDS011;7667;51.232;17.110;2023-11-21T08:21:38;2.50;;;2.30;;
15132;SDS011;7667;51.232;17.110;2023-11-21T08:24:06;2.83;;;2.23;;
15132;SDS011;7667;51.232;17.110;2023-11-21T08:26:37;2.07;;;1.87;;
15132;SDS011;7667;51.232;17.110;2023-11-21T08:29:05;1.80;;;1.70;;
15132;SDS011;7667;51.232;17.110;2023-11-21T08:31:34;3.47;;;2.80;;
15132;SDS011;7667;51.232;17.110;2023-11-21T08:34:01;3.00;;;2.70;;
15132;SDS011;7667;51.232;17.110;2023-11-21T08:36:30;2.30;;;2.10;;
15132;SDS011;7667;51.232;17.110;2023-11-21T08:38:58;2.70;;;2.50;;
15132;SDS011;7667;51.232;17.110;2023-11-21T08:41:26;2.77;;;2.40;;
15132;SDS011;7667;51.232;17.110;2023-11-21T08:43:54;3.13;;;2.80;;
15132;SDS011;7667;51.232;17.110;2023-11-21T08:46:22;2.93;;;2.60;;
15132;SDS011;7667;51.232;17.110;2023-11-21T08:48:52;2.77;;;2.57;;
15132;SDS011;7667;51.232;17.110;2023-11-21T08:51:20;2.77;;;2.57;;
15132;SDS011;7667;51.232;17.110;2023-11-21T08:53:48;3.40;;;3.10;;
15132;SDS011;7667;51.232;17.110;2023-11-21T08:56:15;3.20;;;2.90;;
15132;SDS011;7667;51.232;17.110;2023-11-21T08:58:43;6.03;;;2.80;;
15132;SDS011;7667;51.232;17.110;2023-11-21T09:01:10;3.10;;;2.80;;
15132;SDS011;7667;51.232;17.110;2023-11-21T09:03:39;2.83;;;2.63;;
15132;SDS011;7667;51.232;17.110;2023-11-21T09:06:07;3.53;;;3.20;;
15132;SDS011;7667;51.232;17.110;2023-11-21T09:08:36;6.03;;;5.40;;
15132;SDS011;7667;51.232;17.110;2023-11-21T09:11:04;9.13;;;8.13;;
15132;SDS011;7667;51.232;17.110;2023-11-21T09:13:32;12.67;;;10.53;;
15132;SDS011;7667;51.232;17.110;2023-11-21T09:16:01;16.67;;;13.07;;
15132;SDS011;7667;51.232;17.110;2023-11-21T09:18:29;13.27;;;11.83;;
15132;SDS011;7667;51.232;17.110;2023-11-21T09:20:57;14.10;;;10.87;;
15132;SDS011;7667;51.232;17.110;2023-11-21T09:23:25;13.93;;;11.40;;
15132;SDS011;7667;51.232;17.110;2023-11-21T09:25:53;14.13;;;11.20;;
15132;SDS011;7667;51.232;17.110;2023-11-21T09:28:24;13.33;;;11.10;;
15132;SDS011;7667;51.232;17.110;2023-11-21T09:30:51;15.33;;;12.63;;
15132;SDS011;7667;51.232;17.110;2023-11-21T09:33:19;17.03;;;12.97;;
15132;SDS011;7667;51.232;17.110;2023-11-21T09:35:48;17.03;;;12.93;;
15132;SDS011;7667;51.232;17.110;2023-11-21T09:38:17;15.83;;;12.60;;
15132;SDS011;7667;51.232;17.110;2023-11-21T09:40:46;16.87;;;12.80;;
15132;SDS011;7667;51.232;17.110;2023-11-21T09:43:17;15.67;;;12.80;;
15132;SDS011;7667;51.232;17.110;2023-11-21T09:45:46;12.93;;;11.40;;
15132;SDS011;7667;51.232;17.110;2023-11-21T09:48:17;13.93;;;11.10;;
15132;SDS011;7667;51.232;17.110;2023-11-21T09:50:46;16.30;;;12.73;;
15132;SDS011;7667;51.232;17.110;2023-11-21T09:53:18;16.23;;;13.37;;
15132;SDS011;7667;51.232;17.110;2023-11-21T09:55:50;17.40;;;14.10;;
15132;SDS011;7667;51.232;17.110;2023-11-21T09:58:21;19.87;;;13.27;;
15132;SDS011;7667;51.232;17.110;2023-11-21T10:00:52;19.67;;;14.77;;
15132;SDS011;7667;51.232;17.110;2023-11-21T10:03:23;17.87;;;14.73;;
15132;SDS011;7667;51.232;17.110;2023-11-21T10:05:51;16.83;;;14.83;;
15132;SDS011;7667;51.232;17.110;2023-11-21T10:08:26;17.20;;;14.30;;
15132;SDS011;7667;51.232;17.110;2023-11-21T10:11:12;17.03;;;12.90;;
15132;SDS011;7667;51.232;17.110;2023-11-21T10:13:42;16.63;;;14.40;;
15132;SDS011;7667;51.232;17.110;2023-11-21T10:16:13;19.43;;;13.83;;
15132;SDS011;7667;51.232;17.110;2023-11-21T10:18:43;18.33;;;14.33;;
15132;SDS011;7667;51.232;17.110;2023-11-21T10:21:12;18.77;;;14.57;;
15132;SDS011;7667;51.232;17.110;2023-11-21T10:23:40;19.90;;;15.90;;
15132;SDS011;7667;51.232;17.110;2023-11-21T10:26:11;18.43;;;14.80;;
15132;SDS011;7667;51.232;17.110;2023-11-21T10:29:00;17.97;;;15.17;;
15132;SDS011;7667;51.232;17.110;2023-11-21T10:31:33;19.27;;;15.50;;
15132;SDS011;7667;51.232;17.110;2023-11-21T10:36:48;18.90;;;15.27;;
15132;SDS011;7667;51.232;17.110;2023-11-21T10:39:19;21.47;;;15.53;;
15132;SDS011;7667;51.232;17.110;2023-11-21T10:41:50;20.23;;;15.60;;
15132;SDS011;7667;51.232;17.110;2023-11-21T10:44:18;21.00;;;14.90;;
15132;SDS011;7667;51.232;17.110;2023-11-21T10:46:52;18.63;;;14.93;;
15132;SDS011;7667;51.232;17.110;2023-11-21T10:49:24;18.03;;;14.70;;
15132;SDS011;7667;51.232;17.110;2023-11-21T10:51:54;21.40;;;16.63;;
15132;SDS011;7667;51.232;17.110;2023-11-21T10:54:23;18.33;;;15.50;;
15132;SDS011;7667;51.232;17.110;2023-11-21T10:56:59;19.60;;;16.03;;
15132;SDS011;7667;51.232;17.110;2023-11-21T10:59:29;23.00;;;16.63;;
15132;SDS011;7667;51.232;17.110;2023-11-21T11:01:59;20.07;;;15.53;;
15132;SDS011;7667;51.232;17.110;2023-11-21T11:04:35;20.03;;;15.83;;
15132;SDS011;7667;51.232;17.110;2023-11-21T11:07:05;21.53;;;16.67;;
15132;SDS011;7667;51.232;17.110;2023-11-21T11:09:38;18.60;;;15.67;;
15132;SDS011;7667;51.232;17.110;2023-11-21T11:12:06;17.27;;;14.70;;
15132;SDS011;7667;51.232;17.110;2023-11-21T11:14:36;19.80;;;15.87;;
15132;SDS011;7667;51.232;17.110;2023-11-21T11:17:08;18.17;;;14.87;;
15132;SDS011;7667;51.232;17.110;2023-11-21T11:19:37;17.67;;;13.87;;
15132;SDS011;7667;51.232;17.110;2023-11-21T11:28:21;18.70;;;14.20;;
15132;SDS011;7667;51.232;17.110;2023-11-21T11:34:24;16.43;;;13.30;;
15132;SDS011;7667;51.232;17.110;2023-11-21T11:37:02;16.27;;;13.23;;
15132;SDS011;7667;51.232;17.110;2023-11-21T11:39:42;12.77;;;10.80;;
15132;SDS011;7667;51.232;17.110;2023-11-21T11:42:14;16.73;;;11.80;;
15132;SDS011;7667;51.232;17.110;2023-11-21T11:47:20;10.30;;;8.70;;
15132;SDS011;7667;51.232;17.110;2023-11-21T11:49:56;9.90;;;8.77;;
15132;SDS011;7667;51.232;17.110;2023-11-21T11:52:34;11.40;;;10.20;;
15132;SDS011;7667;51.232;17.110;2023-11-21T11:55:06;13.07;;;11.13;;
15132;SDS011;7667;51.232;17.110;2023-11-21T11:57:38;12.10;;;9.70;;
15132;SDS011;7667;51.232;17.110;2023-11-21T12:00:18;11.57;;;10.13;;
15132;SDS011;7667;51.232;17.110;2023-11-21T12:02:58;11.50;;;8.73;;
15132;SDS011;7667;51.232;17.110;2023-11-21T12:05:33;10.33;;;9.07;;
15132;SDS011;7667;51.232;17.110;2023-11-21T12:08:06;8.47;;;7.53;;
15132;SDS011;7667;51.232;17.110;2023-11-21T12:10:35;9.80;;;7.83;;
15132;SDS011;7667;51.232;17.110;2023-11-21T12:13:06;9.13;;;7.60;;
15132;SDS011;7667;51.232;17.110;2023-11-21T12:15:37;9.20;;;8.03;;
15132;SDS011;7667;51.232;17.110;2023-11-21T12:18:07;10.47;;;8.80;;
15132;SDS011;7667;51.232;17.110;2023-11-21T12:20:35;11.73;;;10.53;;
15132;SDS011;7667;51.232;17.110;2023-11-21T12:23:06;15.17;;;13.57;;
15132;SDS011;7667;51.232;17.110;2023-11-21T12:25:36;11.00;;;9.90;;
15132;SDS011;7667;51.232;17.110;2023-11-21T12:28:08;8.00;;;6.87;;
15132;SDS011;7667;51.232;17.110;2023-11-21T12:30:36;9.63;;;8.70;;
15132;SDS011;7667;51.232;17.110;2023-11-21T12:33:05;11.43;;;9.87;;
15132;SDS011;7667;51.232;17.110;2023-11-21T12:35:36;7.60;;;6.90;;
15132;SDS011;7667;51.232;17.110;2023-11-21T12:38:04;8.67;;;7.23;;
15132;SDS011;7667;51.232;17.110;2023-11-21T12:40:32;7.33;;;6.63;;
15132;SDS011;7667;51.232;17.110;2023-11-21T12:43:01;8.73;;;7.03;;
15132;SDS011;7667;51.232;17.110;2023-11-21T12:45:32;8.63;;;7.47;;
15132;SDS011;7667;51.232;17.110;2023-11-21T12:48:01;8.00;;;7.17;;
15132;SDS011;7667;51.232;17.110;2023-11-21T12:50:38;9.03;;;6.87;;
15132;SDS011;7667;51.232;17.110;2023-11-21T12:53:07;8.57;;;7.27;;
15132;SDS011;7667;51.232;17.110;2023-11-21T12:55:45;8.40;;;7.40;;
15132;SDS011;7667;51.232;17.110;2023-11-21T12:58:17;8.60;;;6.37;;
15132;SDS011;7667;51.232;17.110;2023-11-21T13:00:47;7.77;;;6.40;;
15132;SDS011;7667;51.232;17.110;2023-11-21T13:03:16;7.50;;;6.27;;
15132;SDS011;7667;51.232;17.110;2023-11-21T13:05:47;8.67;;;6.90;;
15132;SDS011;7667;51.232;17.110;2023-11-21T13:08:19;8.57;;;7.67;;
15132;SDS011;7667;51.232;17.110;2023-11-21T13:10:52;9.90;;;8.20;;
15132;SDS011;7667;51.232;17.110;2023-11-21T13:13:25;9.00;;;8.10;;
15132;SDS011;7667;51.232;17.110;2023-11-21T13:15:59;9.20;;;8.27;;
15132;SDS011;7667;51.232;17.110;2023-11-21T13:18:28;9.50;;;8.50;;
15132;SDS011;7667;51.232;17.110;2023-11-21T13:20:59;8.73;;;7.83;;
15132;SDS011;7667;51.232;17.110;2023-11-21T13:23:49;9.47;;;8.57;;
15132;SDS011;7667;51.232;17.110;2023-11-21T13:26:19;10.80;;;9.33;;
15132;SDS011;7667;51.232;17.110;2023-11-21T13:28:48;10.03;;;8.73;;
15132;SDS011;7667;51.232;17.110;2023-11-21T13:31:17;8.70;;;7.73;;
15132;SDS011;7667;51.232;17.110;2023-11-21T13:33:49;7.77;;;7.03;;
15132;SDS011;7667;51.232;17.110;2023-11-21T13:36:30;9.17;;;8.27;;
15132;SDS011;7667;51.232;17.110;2023-11-21T13:39:02;8.70;;;7.90;;
15132;SDS011;7667;51.232;17.110;2023-11-21T13:41:42;9.27;;;8.37;;
15132;SDS011;7667;51.232;17.110;2023-11-21T13:44:10;9.67;;;8.77;;
15132;SDS011;7667;51.232;17.110;2023-11-21T13:46:54;11.03;;;9.93;;
15132;SDS011;7667;51.232;17.110;2023-11-21T13:49:24;10.70;;;9.60;;
15132;SDS011;7667;51.232;17.110;2023-11-21T13:51:53;9.67;;;8.67;;
15132;SDS011;7667;51.232;17.110;2023-11-21T13:54:22;8.83;;;8.03;;
15132;SDS011;7667;51.232;17.110;2023-11-21T13:56:52;9.13;;;8.33;;
15132;SDS011;7667;51.232;17.110;2023-11-21T13:59:19;9.07;;;7.93;;
15132;SDS011;7667;51.232;17.110;2023-11-21T14:01:50;7.90;;;7.20;;
15132;SDS011;7667;51.232;17.110;2023-11-21T14:04:26;8.93;;;8.13;;
15132;SDS011;7667;51.232;17.110;2023-11-21T14:06:56;8.80;;;8.00;;
15132;SDS011;7667;51.232;17.110;2023-11-21T14:09:27;9.77;;;8.87;;
15132;SDS011;7667;51.232;17.110;2023-11-21T14:12:11;11.67;;;10.40;;
15132;SDS011;7667;51.232;17.110;2023-11-21T14:14:41;11.00;;;10.00;;
15132;SDS011;7667;51.232;17.110;2023-11-21T14:17:08;12.63;;;11.43;;
15132;SDS011;7667;51.232;17.110;2023-11-21T14:19:37;12.73;;;11.53;;
15132;SDS011;7667;51.232;17.110;2023-11-21T14:22:10;13.80;;;12.50;;
15132;SDS011;7667;51.232;17.110;2023-11-21T14:24:39;15.13;;;13.73;;
15132;SDS011;7667;51.232;17.110;2023-11-21T14:27:13;17.30;;;15.70;;
15132;SDS011;7667;51.232;17.110;2023-11-21T14:29:44;14.13;;;12.73;;
15132;SDS011;7667;51.232;17.110;2023-11-21T14:32:12;12.93;;;11.73;;
15132;SDS011;7667;51.232;17.110;2023-11-21T14:34:41;12.83;;;11.63;;
15132;SDS011;7667;51.232;17.110;2023-11-21T14:37:13;12.37;;;11.17;;
15132;SDS011;7667;51.232;17.110;2023-11-21T14:39:40;12.33;;;11.23;;
15132;SDS011;7667;51.232;17.110;2023-11-21T14:42:11;14.37;;;12.97;;
15132;SDS011;7667;51.232;17.110;2023-11-21T14:44:42;12.37;;;11.20;;
15132;SDS011;7667;51.232;17.110;2023-11-21T14:47:10;15.30;;;13.80;;
15132;SDS011;7667;51.232;17.110;2023-11-21T14:49:42;13.57;;;12.03;;
15132;SDS011;7667;51.232;17.110;2023-11-21T14:52:20;13.67;;;12.27;;
15132;SDS011;7667;51.232;17.110;2023-11-21T14:55:11;13.07;;;11.87;;
15132;SDS011;7667;51.232;17.110;2023-11-21T14:57:57;13.60;;;12.30;;
15132;SDS011;7667;51.232;17.110;2023-11-21T15:00:29;14.17;;;12.77;;
15132;SDS011;7667;51.232;17.110;2023-11-21T15:03:00;14.83;;;13.10;;
15132;SDS011;7667;51.232;17.110;2023-11-21T15:05:30;16.27;;;13.33;;
15132;SDS011;7667;51.232;17.110;2023-11-21T15:07:58;26.97;;;24.13;;
15132;SDS011;7667;51.232;17.110;2023-11-21T15:10:40;11.83;;;10.73;;